127 км

Карта отелей и гостиниц, располагающихся рядом с аэропортом 127 км :

127 км Красноярский край 69° 22' 33.3588" N, 85° 25' 56.82" E
127 км Красноярский край 69° 22' 33.3588" N, 85° 25' 56.82" E
Код аэродрома ИКАО
HDT4
Код аэродрома RU
ХДТ4
Координаты
N69.37593° E085.43245°
Превышение над уровнем моря
33
Основная полоса
Курс магнитный
Длина основной ВПП
Ширина основной ВПП
Покрытие основной ВПП
Освещение ВПП
Тип: 
Вертодром
Класс аэродрома: 
Принадлежность: 
ГА
Статус: 
Действующий
Сайт: 
E-mail аэродрома: 
Страна: 
Россия
Регион: 
Красноярский край
Город: 
Дополнительная информация: 

Найти трансфер

С помощью этой формы Вы можете найти трансфер из аэропорта 127 км в город, аэропорт или вокзал:

Карта места

Javascript is required to view this map.

Погода в аэропортах:

Авиационная погода в аэропорту Семей

Регион: 
Погода METAR: 
UASS 061130Z 09004MPS 5000 BR NSC M03/M04 Q1021 NOSIG RMK QFE745/0993
Время наблюдения
2021-12-06T11:30:00Z
Температура C
-3.0
Точка росы
-4.0
Направление ветра
90
Скорость ветра (узлы)
8
Метео видимость
3.11
Явления погоды
BR
Условия полета
MVFR
Аэропорт подробнее: 

Авиационная погода в Ужгороде

Регион: 
Погода METAR: 
UKLU 060800Z 00000MPS 2800 -RA BR OVC028 02/02 Q1005 NOSIG
Время наблюдения
2021-12-06T08:00:00Z
Температура C
2.0
Точка росы
2.0
Направление ветра
0
Скорость ветра (узлы)
0
Метео видимость
1.74
Явления погоды
-RA BR
Условия полета
IFR
Аэропорт подробнее: 

Авиационная погода в аэропорту Центральный

Регион: 
Погода METAR: 
UNOO 061030Z 21004MPS 6000 -SHSN BKN026CB M03/M03 Q1013 R25/590140 NOSIG RMK QFE752
Время наблюдения
2021-12-06T10:30:00Z
Температура C
-3.0
Точка росы
-3.0
Направление ветра
210
Скорость ветра (узлы)
8
Метео видимость
3.73
Явления погоды
-SHSN
Условия полета
MVFR
Аэропорт подробнее: 

Авиационная погода в Аулие-Ата

Регион: 
Погода METAR: 
UADD 061130Z 36004MPS 5000 BR SCT026 OVC100 06/02 Q1022 NOSIG RMK QFE709/0945
Время наблюдения
2021-12-06T11:30:00Z
Температура C
6.0
Точка росы
2.0
Направление ветра
360
Скорость ветра (узлы)
8
Метео видимость
3.11
Явления погоды
BR
Условия полета
MVFR
Аэропорт подробнее: